Time;durP1;ratioP1;P1;durP2;ratioP2;P2;SDS_P1;SDS_P2;PMS_P1;PMS_P2;Temp;Humidity;BMP_temperature;BMP_pressure;BME280_temperature;BME280_humidity;BME280_pressure;Samples;Min_cycle;Max_cycle;Signal;HPM_P1;HPM_P2
2022/02/20 00:00:45;;;;;;;;;;;;;;;;;;5086892;28;19908;-52
2022/02/20 00:03:11;;;;;;;;;;;;;;;;;;5080359;28;20263;-53
2022/02/20 00:05:38;;;;;;;;;;;;;;;;;;5083202;28;19908;-54
2022/02/20 00:08:04;;;;;;;;;;;;;;;;;;5086579;28;20355;-58
2022/02/20 00:10:31;;;;;;;;;;;;;;;;;;5087500;28;19934;-59
2022/02/20 00:12:58;;;;;;;;;;;;;;;;;;5081679;28;19939;-59
2022/02/20 00:15:24;;;;;;;;;;;;;;;;;;5083303;28;19912;-57
2022/02/20 00:17:53;;;;;;;;;;;;;;;;;;5086639;28;19963;-57
2022/02/20 00:20:20;;;;;;;;;;;;;;;;;;5085117;28;19908;-58
2022/02/20 00:22:46;;;;;;;;;;;;;;;;;;5083187;28;19908;-56
2022/02/20 00:25:13;;;;;;;;;;;;;;;;;;5084280;28;20357;-53
2022/02/20 00:27:39;;;;;;;;;;;;;;;;;;5090197;28;20020;-57
2022/02/20 00:30:06;;;;;;;;;;;;;;;;;;5089123;28;19918;-60
2022/02/20 00:32:33;;;;;;;;;;;;;;;;;;5089137;28;19908;-58
2022/02/20 00:34:59;;;;;;;;;;;;;;;;;;5078465;28;20382;-57
2022/02/20 00:37:26;;;;;;;;;;;;;;;;;;5087988;28;20439;-56
2022/02/20 00:39:52;;;;;;;;;;;;;;;;;;5090471;28;19912;-59
2022/02/20 00:42:19;;;;;;;;;;;;;;;;;;5088705;28;19995;-53
2022/02/20 00:44:45;;;;;;;;;;;;;;;;;;5082464;28;19908;-53
2022/02/20 00:47:11;;;;;;;;;;;;;;;;;;5091284;28;19954;-56
2022/02/20 00:49:38;;;;;;;;;;;;;;;;;;5084005;28;19997;-57
2022/02/20 00:52:04;;;;;;;;;;;;;;;;;;5087564;28;20278;-59
2022/02/20 00:54:31;;;;;;;;;;;;;;;;;;5084010;28;19912;-59
2022/02/20 00:56:57;;;;;;;;;;;;;;;;;;5088859;28;19908;-56
2022/02/20 00:59:24;;;;;;;;;;;;;;;;;;5085194;28;19908;-61
2022/02/20 01:01:51;;;;;;;;;;;;;;;;;;5090953;28;19913;-59
2022/02/20 01:04:17;;;;;;;;;;;;;;;;;;5079244;28;19915;-60
2022/02/20 01:06:44;;;;;;;;;;;;;;;;;;5082357;28;19944;-62
2022/02/20 01:09:10;;;;;;;;;;;;;;;;;;5089603;28;19916;-55
2022/02/20 01:11:37;;;;;;;;;;;;;;;;;;5085036;28;19909;-51
2022/02/20 01:14:04;;;;;;;;;;;;;;;;;;5080181;28;19991;-52
2022/02/20 01:16:31;;;;;;;;;;;;;;;;;;5084141;28;20011;-51
2022/02/20 01:18:57;;;;;;;;;;;;;;;;;;5090626;28;19920;-48
2022/02/20 01:21:24;;;;;;;;;;;;;;;;;;5093339;28;19912;-55
2022/02/20 01:23:50;;;;;;;;;;;;;;;;;;5089577;28;20278;-56
2022/02/20 01:26:17;;;;;;;;;;;;;;;;;;5091109;28;19914;-54
2022/02/20 01:28:43;;;;;;;;;;;;;;;;;;5091070;28;19963;-54
2022/02/20 01:31:10;;;;;;;;;;;;;;;;;;5092297;28;19915;-53
2022/02/20 01:33:36;;;;;;;;;;;;;;;;;;5088586;28;20279;-48
2022/02/20 01:36:03;;;;;;;;;;;;;;;;;;5091625;28;19916;-54
2022/02/20 01:38:29;;;;;;;;;;;;;;;;;;5093225;28;19923;-52
2022/02/20 01:40:56;;;;;;;;;;;;;;;;;;5092589;28;19962;-57
2022/02/20 01:43:23;;;;;;;;;;;;;;;;;;5088453;28;19998;-58
2022/02/20 01:45:49;;;;;;;;;;;;;;;;;;5090797;28;19980;-56
2022/02/20 01:48:16;;;;;;;;;;;;;;;;;;5092250;28;19919;-54
2022/02/20 01:50:42;;;;;;;;;;;;;;;;;;5092295;28;19915;-56
2022/02/20 01:53:09;;;;;;;;;;;;;;;;;;5088614;28;19908;-50
2022/02/20 01:55:36;;;;;;;;;;;;;;;;;;5091586;28;19908;-49
2022/02/20 01:58:02;;;;;;;;;;;;;;;;;;5091992;28;19916;-57
2022/02/20 02:00:29;;;;;;;;;;;;;;;;;;5091263;28;20281;-53
2022/02/20 02:02:55;;;;;;;;;;;;;;;;;;5089913;28;19916;-51
2022/02/20 02:05:22;;;;;;;;;;;;;;;;;;5089803;28;20006;-53
2022/02/20 02:07:48;;;;;;;;;;;;;;;;;;5091864;28;19924;-52
2022/02/20 02:10:15;;;;;;;;;;;;;;;;;;5091006;28;19908;-51
2022/02/20 02:12:41;;;;;;;;;;;;;;;;;;5091355;28;19963;-53
2022/02/20 02:15:08;;;;;;;;;;;;;;;;;;5088758;28;19908;-52
2022/02/20 02:17:37;;;;;;;;;;;;;;;;;;5090845;28;20003;-54
2022/02/20 02:20:03;;;;;;;;;;;;;;;;;;5087093;28;19934;-52
2022/02/20 02:22:30;;;;;;;;;;;;;;;;;;5089756;28;20272;-54
2022/02/20 02:24:57;;;;;;;;;;;;;;;;;;5083248;28;19961;-49
2022/02/20 02:27:23;;;;;;;;;;;;;;;;;;5088334;28;20312;-54
2022/02/20 02:29:49;;;;;;;;;;;;;;;;;;5093809;28;19908;-54
2022/02/20 02:32:16;;;;;;;;;;;;;;;;;;5094569;28;19995;-52
2022/02/20 02:34:42;;;;;;;;;;;;;;;;;;5093920;28;19908;-51
2022/02/20 02:37:09;;;;;;;;;;;;;;;;;;5094606;28;19912;-51
2022/02/20 02:39:35;;;;;;;;;;;;;;;;;;5094065;28;19923;-55
2022/02/20 02:42:02;;;;;;;;;;;;;;;;;;5093778;28;19912;-53
2022/02/20 02:44:28;;;;;;;;;;;;;;;;;;5094033;28;19954;-50
2022/02/20 02:46:55;;;;;;;;;;;;;;;;;;5092866;28;19912;-49
2022/02/20 02:49:21;;;;;;;;;;;;;;;;;;5093672;28;19992;-54
2022/02/20 02:51:48;;;;;;;;;;;;;;;;;;5094006;28;19915;-53
2022/02/20 02:54:17;;;;;;;;;;;;;;;;;;5094167;28;19908;-50
2022/02/20 02:56:44;;;;;;;;;;;;;;;;;;5092516;28;20390;-52
2022/02/20 02:59:10;;;;;;;;;;;;;;;;;;5093970;28;20273;-54
2022/02/20 03:01:37;;;;;;;;;;;;;;;;;;5075643;28;19969;-51
2022/02/20 03:04:03;;;;;;;;;;;;;;;;;;5075709;28;19914;-52
2022/02/20 03:06:30;;;;;;;;;;;;;;;;;;5093166;28;19909;-49
2022/02/20 03:08:57;;;;;;;;;;;;;;;;;;5093594;28;20007;-49
2022/02/20 03:11:23;;;;;;;;;;;;;;;;;;5093662;28;20342;-51
2022/02/20 03:13:49;;;;;;;;;;;;;;;;;;5093449;28;19962;-53
2022/02/20 03:16:16;;;;;;;;;;;;;;;;;;5093473;28;19916;-55
2022/02/20 03:18:42;;;;;;;;;;;;;;;;;;5093036;28;19927;-52
2022/02/20 03:21:12;;;;;;;;;;;;;;;;;;5092894;28;20458;-55
2022/02/20 03:23:39;;;;;;;;;;;;;;;;;;5093593;28;19908;-67
2022/02/20 03:26:05;;;;;;;;;;;;;;;;;;5093475;28;19904;-68
2022/02/20 03:28:32;;;;;;;;;;;;;;;;;;5093502;28;19915;-70
2022/02/20 03:30:58;;;;;;;;;;;;;;;;;;5075357;28;19908;-70
2022/02/20 03:33:25;;;;;;;;;;;;;;;;;;5075461;28;19907;-72
2022/02/20 03:35:52;;;;;;;;;;;;;;;;;;5093619;28;19912;-68
2022/02/20 03:38:18;;;;;;;;;;;;;;;;;;5093635;28;19917;-65
2022/02/20 03:40:45;;;;;;;;;;;;;;;;;;5093260;28;19908;-62
2022/02/20 03:43:11;;;;;;;;;;;;;;;;;;5093012;28;19916;-63
2022/02/20 03:45:38;;;;;;;;;;;;;;;;;;5093952;28;20003;-65
2022/02/20 03:48:04;;;;;;;;;;;;;;;;;;5093001;28;19915;-67
2022/02/20 03:50:31;;;;;;;;;;;;;;;;;;5093321;28;19916;-65
2022/02/20 03:52:57;;;;;;;;;;;;;;;;;;5093704;28;20446;-69
2022/02/20 03:55:24;;;;;;;;;;;;;;;;;;5075023;28;19915;-64
2022/02/20 03:57:50;;;;;;;;;;;;;;;;;;5093111;28;19920;-68
2022/02/20 04:00:17;;;;;;;;;;;;;;;;;;5093510;28;19962;-65
2022/02/20 04:02:43;;;;;;;;;;;;;;;;;;5093089;28;19917;-59
2022/02/20 04:05:10;;;;;;;;;;;;;;;;;;5093592;28;19915;-67
2022/02/20 04:07:36;;;;;;;;;;;;;;;;;;5093551;28;19961;-65
2022/02/20 04:10:03;;;;;;;;;;;;;;;;;;5093313;28;19909;-66
2022/02/20 04:12:29;;;;;;;;;;;;;;;;;;5092682;28;19968;-62
2022/02/20 04:14:56;;;;;;;;;;;;;;;;;;5093151;28;19947;-64
2022/02/20 04:17:24;;;;;;;;;;;;;;;;;;5092673;28;19912;-66
2022/02/20 04:19:51;;;;;;;;;;;;;;;;;;5092639;28;19908;-67
2022/02/20 04:22:17;;;;;;;;;;;;;;;;;;5093151;28;19909;-65
2022/02/20 04:24:44;;;;;;;;;;;;;;;;;;5092917;28;19908;-63
2022/02/20 04:27:10;;;;;;;;;;;;;;;;;;5092782;28;20320;-64
2022/02/20 04:29:37;;;;;;;;;;;;;;;;;;5092974;28;19935;-67
2022/02/20 04:32:03;;;;;;;;;;;;;;;;;;5092232;28;19969;-63
2022/02/20 04:34:30;;;;;;;;;;;;;;;;;;5092837;28;19951;-68
2022/02/20 04:36:56;;;;;;;;;;;;;;;;;;5093304;28;19908;-67
2022/02/20 04:39:22;;;;;;;;;;;;;;;;;;5074656;28;20254;-64
2022/02/20 04:41:49;;;;;;;;;;;;;;;;;;5092886;28;20277;-67
2022/02/20 04:44:15;;;;;;;;;;;;;;;;;;5093210;28;19908;-64
2022/02/20 04:46:42;;;;;;;;;;;;;;;;;;5092216;28;19948;-58
2022/02/20 04:49:08;;;;;;;;;;;;;;;;;;5075671;28;19919;-64
2022/02/20 04:51:35;;;;;;;;;;;;;;;;;;5085233;28;20688;-62
2022/02/20 04:54:01;;;;;;;;;;;;;;;;;;5084677;28;20065;-62
2022/02/20 04:56:28;;;;;;;;;;;;;;;;;;5086303;28;19915;-61
2022/02/20 04:58:57;;;;;;;;;;;;;;;;;;5081908;28;19916;-63
2022/02/20 05:01:24;;;;;;;;;;;;;;;;;;5088003;28;19991;-68
2022/02/20 05:03:51;;;;;;;;;;;;;;;;;;5082766;28;19908;-63
2022/02/20 05:06:18;;;;;;;;;;;;;;;;;;5066357;28;19978;-59
2022/02/20 05:08:44;;;;;;;;;;;;;;;;;;5085909;28;19921;-53
2022/02/20 05:11:11;;;;;;;;;;;;;;;;;;5087307;28;19930;-53
2022/02/20 05:13:37;;;;;;;;;;;;;;;;;;5085514;28;19958;-48
2022/02/20 05:16:04;;;;;;;;;;;;;;;;;;5086250;28;19996;-53
2022/02/20 05:18:30;;;;;;;;;;;;;;;;;;5088436;28;19943;-51
2022/02/20 05:20:57;;;;;;;;;;;;;;;;;;5085943;28;20426;-57
2022/02/20 05:23:23;;;;;;;;;;;;;;;;;;5082928;28;19940;-56
2022/02/20 05:25:50;;;;;;;;;;;;;;;;;;5086485;28;19908;-50
2022/02/20 05:28:16;;;;;;;;;;;;;;;;;;5085148;28;19908;-53
2022/02/20 05:30:43;;;;;;;;;;;;;;;;;;5088506;28;19908;-51
2022/02/20 05:33:09;;;;;;;;;;;;;;;;;;5064558;28;19908;-46
2022/02/20 05:35:36;;;;;;;;;;;;;;;;;;5086038;28;20007;-44
2022/02/20 05:38:02;;;;;;;;;;;;;;;;;;5088873;28;19924;-60
2022/02/20 05:40:29;;;;;;;;;;;;;;;;;;5090225;28;20090;-55
2022/02/20 05:42:57;;;;;;;;;;;;;;;;;;5081551;28;19969;-55
2022/02/20 05:45:24;;;;;;;;;;;;;;;;;;5069236;28;19916;-51
2022/02/20 05:47:50;;;;;;;;;;;;;;;;;;5090227;28;19909;-52
2022/02/20 05:50:17;;;;;;;;;;;;;;;;;;5067090;28;19912;-51
2022/02/20 05:52:43;;;;;;;;;;;;;;;;;;5060350;28;20270;-57
2022/02/20 05:55:10;;;;;;;;;;;;;;;;;;5086926;28;19908;-56
2022/02/20 05:57:36;;;;;;;;;;;;;;;;;;5080573;28;20279;-54
2022/02/20 06:00:03;;;;;;;;;;;;;;;;;;5071227;28;19935;-56
2022/02/20 06:02:29;;;;;;;;;;;;;;;;;;5083170;28;20692;-54
2022/02/20 06:04:59;;;;;;;;;;;;;;;;;;5077051;28;19908;-54
2022/02/20 06:07:25;;;;;;;;;;;;;;;;;;5085671;28;19908;-50
2022/02/20 06:09:52;;;;;;;;;;;;;;;;;;5088167;28;20337;-52
2022/02/20 06:12:18;;;;;;;;;;;;;;;;;;5062698;28;20313;-54
2022/02/20 06:14:45;;;;;;;;;;;;;;;;;;5087128;28;20227;-49
2022/02/20 06:17:11;;;;;;;;;;;;;;;;;;5089088;28;20342;-54
2022/02/20 06:19:38;;;;;;;;;;;;;;;;;;5085272;28;19912;-56
2022/02/20 06:22:04;;;;;;;;;;;;;;;;;;5080883;28;19999;-51
2022/02/20 06:24:31;;;;;;;;;;;;;;;;;;5088079;28;20007;-49
2022/02/20 06:26:58;;;;;;;;;;;;;;;;;;5082358;28;20290;-57
2022/02/20 06:29:25;;;;;;;;;;;;;;;;;;5085013;28;19908;-54
2022/02/20 06:31:51;;;;;;;;;;;;;;;;;;5085249;28;20010;-50
2022/02/20 06:34:18;;;;;;;;;;;;;;;;;;5065238;28;20362;-54
2022/02/20 06:36:44;;;;;;;;;;;;;;;;;;5084083;28;19908;-51
2022/02/20 06:39:11;;;;;;;;;;;;;;;;;;5086602;28;19920;-55
2022/02/20 06:41:37;;;;;;;;;;;;;;;;;;5087517;28;19908;-59
2022/02/20 06:44:04;;;;;;;;;;;;;;;;;;5080474;28;19915;-54
2022/02/20 06:46:30;;;;;;;;;;;;;;;;;;5086063;28;19916;-55
2022/02/20 06:48:57;;;;;;;;;;;;;;;;;;5088846;28;19908;-52
2022/02/20 06:51:23;;;;;;;;;;;;;;;;;;5086528;28;19908;-50
2022/02/20 06:53:50;;;;;;;;;;;;;;;;;;5062173;28;19908;-55
2022/02/20 06:56:16;;;;;;;;;;;;;;;;;;5088205;28;19928;-56
2022/02/20 06:58:43;;;;;;;;;;;;;;;;;;5086435;28;19916;-52
2022/02/20 07:01:09;;;;;;;;;;;;;;;;;;5086317;28;19915;-53
2022/02/20 07:03:36;;;;;;;;;;;;;;;;;;5077428;28;19916;-55
2022/02/20 07:06:02;;;;;;;;;;;;;;;;;;5068445;28;19995;-55
2022/02/20 07:08:29;;;;;;;;;;;;;;;;;;5088586;28;19930;-52
2022/02/20 07:10:55;;;;;;;;;;;;;;;;;;5080612;28;19914;-53
2022/02/20 07:13:22;;;;;;;;;;;;;;;;;;5082216;28;19939;-54
2022/02/20 07:15:48;;;;;;;;;;;;;;;;;;5088342;28;19912;-52
2022/02/20 07:18:14;;;;;;;;;;;;;;;;;;5085399;28;19927;-60
2022/02/20 07:20:42;;;;;;;;;;;;;;;;;;5085745;28;20092;-55
2022/02/20 07:23:08;;;;;;;;;;;;;;;;;;5075032;28;19908;-49
2022/02/20 07:25:35;;;;;;;;;;;;;;;;;;5086154;28;20277;-53
2022/02/20 07:28:01;;;;;;;;;;;;;;;;;;5086721;28;19924;-52
2022/02/20 07:30:28;;;;;;;;;;;;;;;;;;5085745;28;19931;-50
2022/02/20 07:32:55;;;;;;;;;;;;;;;;;;5077864;28;19940;-49
2022/02/20 07:35:21;;;;;;;;;;;;;;;;;;5088005;28;19916;-51
2022/02/20 07:37:48;;;;;;;;;;;;;;;;;;5066324;28;19912;-56
2022/02/20 07:40:16;;;;;;;;;;;;;;;;;;5082104;28;19912;-52
2022/02/20 07:42:42;;;;;;;;;;;;;;;;;;5081851;28;19908;-52
2022/02/20 07:45:09;;;;;;;;;;;;;;;;;;5078380;28;19915;-56
2022/02/20 07:47:35;;;;;;;;;;;;;;;;;;5079482;28;19916;-51
2022/02/20 07:50:02;;;;;;;;;;;;;;;;;;5085296;28;19912;-50
2022/02/20 07:52:30;;;;;;;;;;;;;;;;;;5081176;28;19940;-57
2022/02/20 07:54:56;;;;;;;;;;;;;;;;;;5064574;28;19948;-52
2022/02/20 07:57:22;;;;;;;;;;;;;;;;;;5084224;28;19908;-45
2022/02/20 07:59:49;;;;;;;;;;;;;;;;;;5070782;28;19916;-51
2022/02/20 08:02:16;;;;;;;;;;;;;;;;;;5077677;28;19977;-58
2022/02/20 08:04:42;;;;;;;;;;;;;;;;;;5084418;28;19908;-52
2022/02/20 08:07:09;;;;;;;;;;;;;;;;;;5088001;28;19962;-47
2022/02/20 08:09:35;;;;;;;;;;;;;;;;;;5086324;28;20415;-55
2022/02/20 08:12:02;;;;;;;;;;;;;;;;;;5081085;28;19952;-54
2022/02/20 08:14:29;;;;;;;;;;;;;;;;;;5084429;28;19912;-55
2022/02/20 08:16:56;;;;;;;;;;;;;;;;;;5083572;28;20274;-52
2022/02/20 08:19:22;;;;;;;;;;;;;;;;;;5086385;28;19920;-54
2022/02/20 08:21:50;;;;;;;;;;;;;;;;;;5084455;28;19908;-60
2022/02/20 08:24:16;;;;;;;;;;;;;;;;;;5078549;28;19969;-53
2022/02/20 08:26:43;;;;;;;;;;;;;;;;;;5086436;28;19912;-54
2022/02/20 08:29:09;;;;;;;;;;;;;;;;;;5086699;28;20359;-55
2022/02/20 08:31:36;;;;;;;;;;;;;;;;;;5085664;28;19909;-54
2022/02/20 08:34:02;;;;;;;;;;;;;;;;;;5079710;28;19917;-53
2022/02/20 08:36:29;;;;;;;;;;;;;;;;;;5086517;28;19908;-54
2022/02/20 08:38:55;;;;;;;;;;;;;;;;;;5086168;28;19966;-57
2022/02/20 08:41:22;;;;;;;;;;;;;;;;;;5085227;28;20384;-55
2022/02/20 08:43:49;;;;;;;;;;;;;;;;;;5079803;28;20367;-49
2022/02/20 08:46:15;;;;;;;;;;;;;;;;;;5081319;28;19915;-57
2022/02/20 08:48:43;;;;;;;;;;;;;;;;;;5087178;28;19919;-56
2022/02/20 08:51:10;;;;;;;;;;;;;;;;;;5086517;28;19935;-52
2022/02/20 08:53:38;;;;;;;;;;;;;;;;;;5081727;28;19912;-54
2022/02/20 08:56:04;;;;;;;;;;;;;;;;;;5084900;28;19917;-53
2022/02/20 08:58:30;;;;;;;;;;;;;;;;;;5068222;28;19916;-55
2022/02/20 09:00:58;;;;;;;;;;;;;;;;;;5083151;28;19962;-55
2022/02/20 09:03:24;;;;;;;;;;;;;;;;;;5079569;28;19912;-57
2022/02/20 09:05:51;;;;;;;;;;;;;;;;;;5085154;28;19912;-52
2022/02/20 09:08:17;;;;;;;;;;;;;;;;;;5078640;28;20236;-54
2022/02/20 09:10:45;;;;;;;;;;;;;;;;;;5085942;28;20301;-55
2022/02/20 09:13:11;;;;;;;;;;;;;;;;;;5079925;28;19908;-55
2022/02/20 09:15:38;;;;;;;;;;;;;;;;;;5083256;28;19916;-56
2022/02/20 09:18:04;;;;;;;;;;;;;;;;;;5089684;28;19935;-49
2022/02/20 09:20:30;;;;;;;;;;;;;;;;;;5084671;28;19908;-49
2022/02/20 09:22:57;;;;;;;;;;;;;;;;;;5081215;28;19961;-59
2022/02/20 09:25:24;;;;;;;;;;;;;;;;;;5088117;28;19995;-56
2022/02/20 09:27:50;;;;;;;;;;;;;;;;;;5085141;28;19944;-54
2022/02/20 09:30:17;;;;;;;;;;;;;;;;;;5087766;28;19915;-53
2022/02/20 09:32:43;;;;;;;;;;;;;;;;;;5083071;28;19953;-56
2022/02/20 09:35:10;;;;;;;;;;;;;;;;;;5067404;28;20412;-52
2022/02/20 09:37:36;;;;;;;;;;;;;;;;;;5087285;28;19920;-53
2022/02/20 09:40:03;;;;;;;;;;;;;;;;;;5090150;28;19909;-60
2022/02/20 09:42:29;;;;;;;;;;;;;;;;;;5073761;28;19975;-59
2022/02/20 09:44:56;;;;;;;;;;;;;;;;;;5072398;28;19932;-58
2022/02/20 09:47:22;;;;;;;;;;;;;;;;;;5072401;28;19916;-51
2022/02/20 09:49:49;;;;;;;;;;;;;;;;;;5072331;28;19916;-57
2022/02/20 09:52:15;;;;;;;;;;;;;;;;;;5070973;28;19908;-51
2022/02/20 09:54:42;;;;;;;;;;;;;;;;;;5072089;28;19912;-59
2022/02/20 09:57:08;;;;;;;;;;;;;;;;;;5071722;28;19916;-59
2022/02/20 09:59:39;;;;;;;;;;;;;;;;;;5077781;28;19916;-46
2022/02/20 10:02:05;;;;;;;;;;;;;;;;;;5084276;28;20567;-58
2022/02/20 10:04:32;;;;;;;;;;;;;;;;;;5070388;28;19912;-60
2022/02/20 10:06:58;;;;;;;;;;;;;;;;;;5072239;28;20362;-61
2022/02/20 10:09:25;;;;;;;;;;;;;;;;;;5053386;28;20311;-58
2022/02/20 10:11:51;;;;;;;;;;;;;;;;;;5070627;28;20286;-60
2022/02/20 10:14:18;;;;;;;;;;;;;;;;;;5071256;28;19909;-59
2022/02/20 10:16:44;;;;;;;;;;;;;;;;;;5080025;28;20316;-61
2022/02/20 10:19:11;;;;;;;;;;;;;;;;;;5090962;28;19920;-56
2022/02/20 10:21:37;;;;;;;;;;;;;;;;;;5092964;28;19931;-60
2022/02/20 10:24:04;;;;;;;;;;;;;;;;;;5089246;28;19908;-62
2022/02/20 10:26:33;;;;;;;;;;;;;;;;;;5091586;28;19915;-56
2022/02/20 10:28:59;;;;;;;;;;;;;;;;;;5092030;28;19911;-57
2022/02/20 10:31:26;;;;;;;;;;;;;;;;;;5091866;28;20266;-59
2022/02/20 10:33:52;;;;;;;;;;;;;;;;;;5088921;28;19915;-64
2022/02/20 10:36:19;;;;;;;;;;;;;;;;;;5091747;28;19993;-53
2022/02/20 10:38:45;;;;;;;;;;;;;;;;;;5091770;28;19923;-56
2022/02/20 10:41:12;;;;;;;;;;;;;;;;;;5092015;28;19912;-58
2022/02/20 10:43:40;;;;;;;;;;;;;;;;;;5088670;28;19950;-56
2022/02/20 10:46:07;;;;;;;;;;;;;;;;;;5091990;28;20247;-51
2022/02/20 10:48:33;;;;;;;;;;;;;;;;;;5092184;28;19912;-54
2022/02/20 10:51:02;;;;;;;;;;;;;;;;;;5092064;28;20362;-51
2022/02/20 10:53:29;;;;;;;;;;;;;;;;;;5087679;28;20377;-55
2022/02/20 10:55:55;;;;;;;;;;;;;;;;;;5091590;28;19915;-54
2022/02/20 10:58:31;;;;;;;;;;;;;;;;;;5091250;28;19920;-58
2022/02/20 11:00:57;;;;;;;;;;;;;;;;;;5091020;28;19908;-53
2022/02/20 11:03:24;;;;;;;;;;;;;;;;;;5087979;28;20343;-55
2022/02/20 11:05:50;;;;;;;;;;;;;;;;;;5091585;28;19908;-56
2022/02/20 11:08:17;;;;;;;;;;;;;;;;;;5090774;28;20003;-54
2022/02/20 11:10:43;;;;;;;;;;;;;;;;;;5090560;28;19927;-49
2022/02/20 11:13:10;;;;;;;;;;;;;;;;;;5092558;28;19973;-58
2022/02/20 11:15:37;;;;;;;;;;;;;;;;;;5094316;28;19954;-59
2022/02/20 11:18:04;;;;;;;;;;;;;;;;;;5086667;28;19924;-56
2022/02/20 11:20:31;;;;;;;;;;;;;;;;;;5093582;28;19915;-57
2022/02/20 11:22:58;;;;;;;;;;;;;;;;;;5093707;28;19908;-60
2022/02/20 11:25:24;;;;;;;;;;;;;;;;;;5093681;28;20358;-56
2022/02/20 11:27:50;;;;;;;;;;;;;;;;;;5093681;28;19908;-53
2022/02/20 11:30:17;;;;;;;;;;;;;;;;;;5093299;28;19915;-57
2022/02/20 11:32:43;;;;;;;;;;;;;;;;;;5092857;28;19916;-56
2022/02/20 11:35:17;;;;;;;;;;;;;;;;;;5093686;28;19995;-47
2022/02/20 11:37:44;;;;;;;;;;;;;;;;;;5093746;28;19965;-53
2022/02/20 11:40:14;;;;;;;;;;;;;;;;;;5092758;28;19999;-56
2022/02/20 11:42:41;;;;;;;;;;;;;;;;;;5093379;28;19912;-55
2022/02/20 11:45:07;;;;;;;;;;;;;;;;;;5093331;28;19961;-57
2022/02/20 11:47:34;;;;;;;;;;;;;;;;;;5093159;28;19912;-55
2022/02/20 11:50:00;;;;;;;;;;;;;;;;;;5093444;28;19917;-53
2022/02/20 11:52:26;;;;;;;;;;;;;;;;;;5093186;28;20049;-52
2022/02/20 11:54:53;;;;;;;;;;;;;;;;;;5093062;28;19908;-60
2022/02/20 11:57:22;;;;;;;;;;;;;;;;;;5093383;28;19908;-52
2022/02/20 11:59:49;;;;;;;;;;;;;;;;;;5093230;28;19916;-55
2022/02/20 12:02:15;;;;;;;;;;;;;;;;;;5092860;28;19908;-56
2022/02/20 12:04:42;;;;;;;;;;;;;;;;;;5091784;28;19957;-52
2022/02/20 12:07:08;;;;;;;;;;;;;;;;;;5093029;28;19908;-53
2022/02/20 12:09:35;;;;;;;;;;;;;;;;;;5092882;28;19908;-57
2022/02/20 12:12:04;;;;;;;;;;;;;;;;;;5093277;28;19918;-60
2022/02/20 12:14:32;;;;;;;;;;;;;;;;;;5093092;28;19946;-58
2022/02/20 12:17:01;;;;;;;;;;;;;;;;;;5092559;28;19909;-59
2022/02/20 12:19:27;;;;;;;;;;;;;;;;;;5095062;28;19916;-61
2022/02/20 12:21:54;;;;;;;;;;;;;;;;;;5095974;28;19914;-57
2022/02/20 12:24:20;;;;;;;;;;;;;;;;;;5097077;28;19915;-58
2022/02/20 12:26:48;;;;;;;;;;;;;;;;;;5095839;28;19953;-59
2022/02/20 12:29:15;;;;;;;;;;;;;;;;;;5096929;28;20018;-62
2022/02/20 12:31:41;;;;;;;;;;;;;;;;;;5097150;28;20458;-57
2022/02/20 12:34:08;;;;;;;;;;;;;;;;;;5097237;28;19969;-61
2022/02/20 12:36:34;;;;;;;;;;;;;;;;;;5096943;28;19936;-56
2022/02/20 12:39:04;;;;;;;;;;;;;;;;;;5096992;28;19916;-50
2022/02/20 12:41:31;;;;;;;;;;;;;;;;;;5097104;28;19938;-52
2022/02/20 12:43:58;;;;;;;;;;;;;;;;;;5097007;28;20010;-48
2022/02/20 12:46:24;;;;;;;;;;;;;;;;;;5096836;28;19915;-50
2022/02/20 12:48:51;;;;;;;;;;;;;;;;;;5096576;28;20277;-54
2022/02/20 12:51:17;;;;;;;;;;;;;;;;;;5096961;28;19909;-50
2022/02/20 12:53:44;;;;;;;;;;;;;;;;;;5096820;28;19908;-48
2022/02/20 12:56:10;;;;;;;;;;;;;;;;;;5096997;28;19912;-49
2022/02/20 12:58:37;;;;;;;;;;;;;;;;;;5096522;28;20010;-50
2022/02/20 13:01:03;;;;;;;;;;;;;;;;;;5096801;28;19953;-50
2022/02/20 13:03:30;;;;;;;;;;;;;;;;;;5096649;28;19915;-46
2022/02/20 13:05:58;;;;;;;;;;;;;;;;;;5096663;28;19951;-55
2022/02/20 13:08:32;;;;;;;;;;;;;;;;;;5096607;28;19912;-57
2022/02/20 13:11:00;;;;;;;;;;;;;;;;;;5096688;28;19915;-54
2022/02/20 13:13:26;;;;;;;;;;;;;;;;;;5096419;28;20320;-52
2022/02/20 13:15:53;;;;;;;;;;;;;;;;;;5096140;28;19915;-53
2022/02/20 13:18:21;;;;;;;;;;;;;;;;;;5088044;28;20560;-50
2022/02/20 13:20:47;;;;;;;;;;;;;;;;;;5094054;28;19944;-54
2022/02/20 13:23:14;;;;;;;;;;;;;;;;;;5093158;28;19994;-54
2022/02/20 13:25:40;;;;;;;;;;;;;;;;;;5094768;28;20308;-52
2022/02/20 13:28:09;;;;;;;;;;;;;;;;;;5092668;28;19915;-52
2022/02/20 13:30:35;;;;;;;;;;;;;;;;;;5090759;28;19916;-52
2022/02/20 13:33:02;;;;;;;;;;;;;;;;;;5092208;28;19961;-53
2022/02/20 13:35:28;;;;;;;;;;;;;;;;;;5093180;28;20346;-58
2022/02/20 13:37:55;;;;;;;;;;;;;;;;;;5090889;28;19912;-49
2022/02/20 13:40:21;;;;;;;;;;;;;;;;;;5090780;28;19916;-53
2022/02/20 13:42:48;;;;;;;;;;;;;;;;;;5092189;28;19907;-59
2022/02/20 13:45:14;;;;;;;;;;;;;;;;;;5092546;28;19970;-52
2022/02/20 13:47:41;;;;;;;;;;;;;;;;;;5092633;28;20347;-48
2022/02/20 13:50:07;;;;;;;;;;;;;;;;;;5089978;28;20303;-50
2022/02/20 13:52:39;;;;;;;;;;;;;;;;;;5092192;28;19912;-52
2022/02/20 13:55:09;;;;;;;;;;;;;;;;;;5092569;28;19965;-51
2022/02/20 13:57:36;;;;;;;;;;;;;;;;;;5092370;28;19931;-50
2022/02/20 14:00:02;;;;;;;;;;;;;;;;;;5088264;28;19958;-50
2022/02/20 14:02:29;;;;;;;;;;;;;;;;;;5092503;28;19909;-54
2022/02/20 14:04:55;;;;;;;;;;;;;;;;;;5092815;28;19908;-50
2022/02/20 14:07:22;;;;;;;;;;;;;;;;;;5092278;28;19919;-51
2022/02/20 14:09:48;;;;;;;;;;;;;;;;;;5088131;28;19926;-50
2022/02/20 14:12:15;;;;;;;;;;;;;;;;;;5092171;28;20434;-52
2022/02/20 14:14:41;;;;;;;;;;;;;;;;;;5092279;28;19912;-47
2022/02/20 14:17:08;;;;;;;;;;;;;;;;;;5091357;28;19908;-52
2022/02/20 14:19:34;;;;;;;;;;;;;;;;;;5074216;28;19920;-57
2022/02/20 14:22:01;;;;;;;;;;;;;;;;;;5074186;28;19912;-49
2022/02/20 14:24:27;;;;;;;;;;;;;;;;;;5072420;28;19916;-53
2022/02/20 14:26:54;;;;;;;;;;;;;;;;;;5077763;28;19931;-52
2022/02/20 14:29:20;;;;;;;;;;;;;;;;;;5071657;28;19916;-55
2022/02/20 14:31:47;;;;;;;;;;;;;;;;;;5071625;28;19967;-58
2022/02/20 14:34:13;;;;;;;;;;;;;;;;;;5074186;28;20003;-54
2022/02/20 14:36:41;;;;;;;;;;;;;;;;;;5074696;28;19912;-55
2022/02/20 14:39:07;;;;;;;;;;;;;;;;;;5071551;28;19940;-55
2022/02/20 14:41:34;;;;;;;;;;;;;;;;;;5074074;28;19916;-55
2022/02/20 14:44:00;;;;;;;;;;;;;;;;;;5074128;28;19912;-54
2022/02/20 14:46:27;;;;;;;;;;;;;;;;;;5078166;28;19916;-52
2022/02/20 14:48:57;;;;;;;;;;;;;;;;;;5074529;28;19908;-52
2022/02/20 14:51:23;;;;;;;;;;;;;;;;;;5073545;28;20401;-53
2022/02/20 14:53:49;;;;;;;;;;;;;;;;;;5070720;28;20318;-55
2022/02/20 14:56:19;;;;;;;;;;;;;;;;;;5073527;28;19909;-58
2022/02/20 14:58:52;;;;;;;;;;;;;;;;;;5073731;28;19961;-61
2022/02/20 15:01:19;;;;;;;;;;;;;;;;;;5073280;28;19909;-51
2022/02/20 15:03:45;;;;;;;;;;;;;;;;;;5075485;28;19909;-57
2022/02/20 15:06:12;;;;;;;;;;;;;;;;;;5073181;28;19912;-52
2022/02/20 15:08:39;;;;;;;;;;;;;;;;;;5055076;28;19916;-52
2022/02/20 15:11:05;;;;;;;;;;;;;;;;;;5078519;28;20328;-55
2022/02/20 15:13:32;;;;;;;;;;;;;;;;;;5072126;28;19936;-59
2022/02/20 15:15:58;;;;;;;;;;;;;;;;;;5072041;28;19923;-49
2022/02/20 15:18:25;;;;;;;;;;;;;;;;;;5077155;28;19921;-54
2022/02/20 15:20:51;;;;;;;;;;;;;;;;;;5086302;28;20468;-50
2022/02/20 15:23:20;;;;;;;;;;;;;;;;;;5089490;28;19916;-59
2022/02/20 15:25:46;;;;;;;;;;;;;;;;;;5085095;28;19908;-55
2022/02/20 15:28:13;;;;;;;;;;;;;;;;;;5084362;28;19908;-50
2022/02/20 15:30:39;;;;;;;;;;;;;;;;;;5083342;28;20320;-51
2022/02/20 15:33:06;;;;;;;;;;;;;;;;;;5082331;28;20004;-57
2022/02/20 15:35:32;;;;;;;;;;;;;;;;;;5085852;28;19989;-55
2022/02/20 15:37:59;;;;;;;;;;;;;;;;;;5088410;28;19931;-55
2022/02/20 15:40:25;;;;;;;;;;;;;;;;;;5079752;28;19953;-57
2022/02/20 15:42:52;;;;;;;;;;;;;;;;;;5085646;28;20393;-56
2022/02/20 15:45:20;;;;;;;;;;;;;;;;;;5085126;28;20366;-59
2022/02/20 15:47:46;;;;;;;;;;;;;;;;;;5087434;28;19936;-60
2022/02/20 15:50:13;;;;;;;;;;;;;;;;;;5079624;28;19911;-55
2022/02/20 15:52:41;;;;;;;;;;;;;;;;;;5086510;28;19961;-54
2022/02/20 15:55:07;;;;;;;;;;;;;;;;;;5085582;28;19923;-57
2022/02/20 15:57:34;;;;;;;;;;;;;;;;;;5087867;28;19915;-57
2022/02/20 16:00:00;;;;;;;;;;;;;;;;;;5078363;28;19940;-58
2022/02/20 16:02:29;;;;;;;;;;;;;;;;;;5083369;28;19908;-57
2022/02/20 16:04:57;;;;;;;;;;;;;;;;;;5088905;28;20263;-58
2022/02/20 16:07:23;;;;;;;;;;;;;;;;;;5084144;28;19908;-58
2022/02/20 16:09:50;;;;;;;;;;;;;;;;;;5076837;28;19915;-52
2022/02/20 16:12:16;;;;;;;;;;;;;;;;;;5088418;28;19917;-59
2022/02/20 16:14:44;;;;;;;;;;;;;;;;;;5078009;28;19908;-52
2022/02/20 16:17:10;;;;;;;;;;;;;;;;;;5080784;28;19909;-54
2022/02/20 16:19:37;;;;;;;;;;;;;;;;;;5085931;28;19923;-56
2022/02/20 16:22:03;;;;;;;;;;;;;;;;;;5090170;28;19912;-52
2022/02/20 16:24:30;;;;;;;;;;;;;;;;;;5090479;28;19911;-51
2022/02/20 16:26:56;;;;;;;;;;;;;;;;;;5090215;28;19951;-56
2022/02/20 16:29:23;;;;;;;;;;;;;;;;;;5085750;28;19930;-54
2022/02/20 16:31:49;;;;;;;;;;;;;;;;;;5089928;28;19916;-56
2022/02/20 16:34:15;;;;;;;;;;;;;;;;;;5090240;28;20444;-53
2022/02/20 16:36:45;;;;;;;;;;;;;;;;;;5088938;28;19912;-54
2022/02/20 16:39:12;;;;;;;;;;;;;;;;;;5086086;28;19931;-50
2022/02/20 16:41:38;;;;;;;;;;;;;;;;;;5089971;28;20337;-54